createdAt,value
2019-03-10T00:05:00.338Z,5.53
2019-03-10T00:10:04.013Z,2.90
2019-03-10T00:15:08.028Z,6.47
2019-03-10T00:20:10.498Z,4.67
2019-03-10T00:25:12.702Z,6.03
2019-03-10T00:30:15.980Z,3.43
2019-03-10T00:35:18.267Z,3.83
2019-03-10T00:40:38.918Z,2.77
2019-03-10T00:45:48.593Z,4.23
2019-03-10T00:51:08.865Z,4.47
2019-03-10T00:56:11.032Z,3.50
2019-03-10T01:01:13.193Z,3.87
2019-03-10T01:06:15.390Z,6.22
2019-03-10T01:11:17.584Z,3.13
2019-03-10T01:16:19.777Z,7.00
2019-03-10T01:21:21.934Z,4.73
2019-03-10T01:26:24.143Z,2.03
2019-03-10T01:31:43.265Z,2.65
2019-03-10T01:36:45.445Z,2.97
2019-03-10T01:41:47.610Z,5.30
2019-03-10T01:46:49.823Z,3.37
2019-03-10T01:51:52.011Z,4.27
2019-03-10T01:56:54.194Z,5.73
2019-03-10T02:01:56.390Z,4.13
2019-03-10T02:06:58.559Z,3.23
2019-03-10T02:12:00.739Z,2.10
2019-03-10T02:17:02.924Z,5.13
2019-03-10T02:22:05.108Z,2.77
2019-03-10T02:27:07.300Z,3.33
2019-03-10T02:32:09.492Z,2.30
2019-03-10T02:37:11.667Z,3.33
2019-03-10T02:42:13.853Z,3.43
2019-03-10T02:47:15.996Z,4.10
2019-03-10T02:52:18.443Z,2.83
2019-03-10T02:57:20.699Z,2.00
2019-03-10T03:02:23.015Z,4.28
2019-03-10T03:07:25.192Z,2.33
2019-03-10T03:12:27.372Z,4.17
2019-03-10T03:17:29.559Z,3.40
2019-03-10T03:22:31.715Z,3.60
2019-03-10T03:27:33.905Z,1.97
2019-03-10T03:32:36.105Z,2.00
2019-03-10T03:37:38.261Z,3.77
2019-03-10T03:42:40.442Z,4.47
2019-03-10T03:47:42.870Z,2.93
2019-03-10T03:52:45.035Z,2.77
2019-03-10T03:57:47.235Z,4.40
2019-03-10T04:02:49.419Z,3.37
2019-03-10T04:07:51.644Z,3.77
2019-03-10T04:12:53.809Z,1.93
2019-03-10T04:17:55.981Z,2.23
2019-03-10T04:22:58.502Z,2.83
2019-03-10T04:28:00.992Z,3.37
2019-03-10T04:33:03.172Z,3.73
2019-03-10T04:38:05.340Z,2.13
2019-03-10T04:43:07.515Z,1.70
2019-03-10T04:48:09.681Z,2.40
2019-03-10T04:53:11.862Z,2.02
2019-03-10T04:58:17.058Z,1.42
2019-03-10T05:03:19.255Z,2.63
2019-03-10T05:08:21.422Z,2.60
2019-03-10T05:13:23.609Z,1.50
2019-03-10T05:18:25.790Z,2.30
2019-03-10T05:23:28.722Z,2.30
2019-03-10T05:28:31.874Z,1.33
2019-03-10T05:33:34.056Z,1.50
2019-03-10T05:38:36.290Z,2.10
2019-03-10T05:43:38.469Z,1.17
2019-03-10T05:48:41.054Z,1.53
2019-03-10T05:53:43.213Z,3.90
2019-03-10T05:58:45.402Z,5.77
2019-03-10T06:03:47.582Z,4.03
2019-03-10T06:08:49.765Z,5.22
2019-03-10T06:13:51.934Z,5.30
2019-03-10T06:18:54.141Z,4.47
2019-03-10T06:23:56.306Z,4.93
2019-03-10T06:28:58.464Z,3.05
2019-03-10T06:34:00.640Z,2.60
2019-03-10T06:39:04.280Z,6.27
2019-03-10T06:44:06.445Z,1.10
2019-03-10T06:49:08.647Z,0.90
2019-03-10T06:54:10.822Z,0.70
2019-03-10T06:59:13.005Z,0.60
2019-03-10T07:04:15.201Z,0.70
2019-03-10T07:09:17.404Z,0.63
2019-03-10T07:14:19.571Z,1.00
2019-03-10T07:19:21.811Z,0.87
2019-03-10T07:24:24.055Z,0.70
2019-03-10T07:29:27.911Z,0.70
2019-03-10T07:34:34.564Z,0.88
2019-03-10T07:44:47.023Z,1.00
2019-03-10T07:49:50.867Z,0.70
2019-03-10T07:54:54.671Z,0.90
2019-03-10T08:00:07.644Z,1.23
2019-03-10T08:05:14.219Z,1.17
2019-03-10T08:10:27.127Z,1.17
2019-03-10T08:15:33.990Z,1.20
2019-03-10T08:25:57.140Z,0.90
2019-03-10T08:31:06.614Z,1.30
2019-03-10T08:36:10.490Z,1.30
2019-03-10T08:41:17.238Z,0.93
2019-03-10T08:46:21.041Z,0.78
2019-03-10T08:51:34.241Z,0.82
2019-03-10T08:56:43.864Z,0.57
2019-03-10T09:01:53.590Z,2.30
2019-03-10T09:07:06.402Z,0.96
2019-03-10T09:12:12.932Z,0.57
2019-03-10T09:22:22.851Z,0.60
2019-03-10T09:27:28.504Z,0.90
2019-03-10T09:32:36.932Z,0.75
2019-03-10T09:37:50.236Z,0.90
2019-03-10T09:43:10.720Z,1.20
2019-03-10T09:48:20.248Z,0.70
2019-03-10T09:53:24.176Z,1.07
2019-03-10T09:58:33.789Z,1.10
2019-03-10T10:03:43.422Z,0.70
2019-03-10T10:08:56.529Z,1.17
2019-03-10T10:14:00.377Z,1.87
2019-03-10T10:19:07.476Z,0.60
2019-03-10T10:24:11.302Z,2.17
2019-03-10T10:29:15.156Z,2.17
2019-03-10T10:34:27.643Z,1.30
2019-03-10T10:39:47.990Z,2.63
2019-03-10T10:44:51.826Z,1.20
2019-03-10T10:49:58.633Z,2.37
2019-03-10T10:55:18.957Z,0.60
2019-03-10T11:00:38.258Z,0.50
2019-03-10T11:05:56.855Z,0.78
2019-03-10T11:11:00.755Z,0.70
2019-03-10T11:16:07.585Z,2.27
2019-03-10T11:21:20.269Z,1.22
2019-03-10T11:26:39.119Z,0.50
2019-03-10T11:31:42.948Z,1.25
2019-03-10T11:37:03.844Z,1.65
2019-03-10T11:42:07.942Z,1.23
2019-03-10T11:47:17.672Z,0.50
2019-03-10T11:52:24.333Z,0.88
2019-03-10T11:57:35.669Z,0.55
2019-03-10T12:02:55.861Z,0.75
2019-03-10T12:07:59.711Z,0.60
2019-03-10T12:13:02.088Z,0.90
2019-03-10T12:18:04.336Z,1.15
2019-03-10T12:23:06.580Z,0.62
2019-03-10T12:28:08.977Z,0.80
2019-03-10T12:33:11.265Z,1.35
2019-03-10T12:38:13.519Z,4.17
2019-03-10T12:43:15.859Z,1.45
2019-03-10T12:48:18.131Z,1.00
2019-03-10T12:53:20.513Z,1.33
2019-03-10T12:58:22.736Z,3.00
2019-03-10T13:03:25.104Z,3.60
2019-03-10T13:08:27.321Z,3.13
2019-03-10T13:13:29.520Z,3.63
2019-03-10T13:18:31.706Z,3.33
2019-03-10T13:23:33.981Z,2.92
2019-03-10T13:28:36.180Z,3.10
2019-03-10T13:33:38.461Z,5.70
2019-03-10T13:38:40.660Z,3.10
2019-03-10T13:43:42.874Z,4.28
2019-03-10T13:48:45.150Z,3.37
2019-03-10T13:53:47.453Z,4.70
2019-03-10T13:58:49.635Z,4.08
2019-03-10T14:03:51.933Z,7.65
2019-03-10T14:08:54.222Z,21.10
2019-03-10T14:13:56.488Z,25.17
2019-03-10T14:18:58.712Z,8.93
2019-03-10T14:24:01.137Z,7.10
2019-03-10T14:29:03.551Z,8.18
2019-03-10T14:34:06.018Z,6.93
2019-03-10T14:39:08.389Z,12.63
2019-03-10T14:44:10.596Z,8.58
2019-03-10T14:49:22.590Z,12.23
2019-03-10T14:54:16.800Z,11.80
2019-03-10T14:59:19.034Z,12.80
2019-03-10T15:04:21.320Z,12.18
2019-03-10T15:09:23.513Z,12.95
2019-03-10T15:14:25.835Z,11.45
2019-03-10T15:19:28.024Z,9.75
2019-03-10T15:24:30.300Z,10.95
2019-03-10T15:29:32.604Z,10.94
2019-03-10T15:34:34.813Z,11.26
2019-03-10T15:39:37.655Z,6.67
2019-03-10T15:44:39.975Z,7.30
2019-03-10T15:49:42.227Z,13.58
2019-03-10T15:54:44.519Z,8.38
2019-03-10T15:59:46.842Z,8.60
2019-03-10T16:04:49.219Z,8.03
2019-03-10T16:09:51.426Z,6.47
2019-03-10T16:14:53.640Z,11.26
2019-03-10T16:19:55.841Z,8.47
2019-03-10T16:24:58.455Z,23.53
2019-03-10T16:30:00.812Z,9.27
2019-03-10T16:35:03.822Z,10.93
2019-03-10T16:40:10.853Z,10.97
2019-03-10T16:45:16.995Z,8.70
2019-03-10T16:50:24.017Z,11.37
2019-03-10T17:00:28.006Z,8.80
2019-03-10T17:05:30.232Z,8.47
2019-03-10T17:10:32.467Z,7.27
2019-03-10T17:15:34.834Z,6.70
2019-03-10T17:20:37.102Z,8.17
2019-03-10T17:25:39.404Z,8.03
2019-03-10T17:30:41.786Z,5.70
2019-03-10T17:35:44.062Z,9.85
2019-03-10T17:40:46.464Z,9.23
2019-03-10T17:45:49.901Z,9.77
2019-03-10T17:50:52.418Z,6.80
2019-03-10T17:55:54.621Z,5.90
2019-03-10T18:00:57.363Z,5.72
2019-03-10T18:05:59.679Z,6.53
2019-03-10T18:11:01.902Z,5.53
2019-03-10T18:16:04.272Z,4.57
2019-03-10T18:21:06.421Z,6.03
2019-03-10T18:26:08.625Z,4.70
2019-03-10T18:31:10.899Z,3.93
2019-03-10T18:36:13.132Z,7.13
2019-03-10T18:41:15.306Z,7.97
2019-03-10T18:46:17.533Z,6.33
2019-03-10T18:51:19.853Z,6.93
2019-03-10T18:56:22.219Z,7.30
2019-03-10T19:01:24.413Z,4.87
2019-03-10T19:06:26.596Z,11.38
2019-03-10T19:11:28.848Z,7.30
2019-03-10T19:16:31.071Z,6.90
2019-03-10T19:21:33.770Z,5.50
2019-03-10T19:26:36.037Z,8.93
2019-03-10T19:31:38.425Z,10.07
2019-03-10T19:36:40.635Z,6.17
2019-03-10T19:41:43.218Z,8.00
2019-03-10T19:46:45.766Z,6.27
2019-03-10T19:51:48.992Z,7.13
2019-03-10T19:56:51.584Z,8.90
2019-03-10T20:01:53.813Z,6.90
2019-03-10T20:06:56.119Z,7.60
2019-03-10T20:11:58.525Z,11.20
2019-03-10T20:17:00.906Z,10.67
2019-03-10T20:22:03.162Z,9.00
2019-03-10T20:27:05.909Z,12.30
2019-03-10T20:32:13.890Z,15.43
2019-03-10T20:37:12.680Z,11.47
2019-03-10T20:42:14.908Z,9.70
2019-03-10T20:47:17.106Z,11.73
2019-03-10T20:52:19.354Z,11.10
2019-03-10T20:57:21.568Z,11.07
2019-03-10T21:02:24.850Z,14.93
2019-03-10T21:07:27.102Z,14.73
2019-03-10T21:12:39.440Z,12.23
2019-03-10T21:17:33.340Z,11.93
2019-03-10T21:22:35.587Z,18.13
2019-03-10T21:27:38.580Z,17.93
2019-03-10T21:32:40.989Z,11.27
2019-03-10T21:37:43.265Z,12.77
2019-03-10T21:42:45.509Z,16.10
2019-03-10T21:47:48.527Z,15.98
2019-03-10T21:52:50.726Z,15.20
2019-03-10T21:57:52.999Z,14.83
2019-03-10T22:02:55.206Z,10.97
2019-03-10T22:07:57.399Z,14.27
2019-03-10T22:12:59.697Z,13.63
2019-03-10T22:18:01.969Z,13.88
2019-03-10T22:23:04.155Z,13.07
2019-03-10T22:28:06.363Z,15.37
2019-03-10T22:33:08.556Z,12.20
2019-03-10T22:38:10.864Z,13.90
2019-03-10T22:43:13.115Z,10.67
2019-03-10T22:48:15.361Z,13.07
2019-03-10T22:53:17.575Z,11.50
2019-03-10T22:58:19.749Z,11.57
2019-03-10T23:03:21.955Z,11.40
2019-03-10T23:08:24.197Z,9.60
2019-03-10T23:13:26.371Z,12.20
2019-03-10T23:18:28.581Z,17.50
2019-03-10T23:23:31.086Z,15.72
2019-03-10T23:28:33.257Z,14.60
2019-03-10T23:33:35.458Z,14.73
2019-03-10T23:38:37.680Z,10.90
2019-03-10T23:43:39.871Z,12.13
2019-03-10T23:48:42.066Z,14.87
2019-03-10T23:53:44.269Z,15.67
2019-03-10T23:58:46.463Z,13.80
